Time;durP1;ratioP1;P1;durP2;ratioP2;P2;SDS_P1;SDS_P2;PMS_P1;PMS_P2;Temp;Humidity;BMP_temperature;BMP_pressure;BME280_temperature;BME280_humidity;BME280_pressure;Samples;Min_cycle;Max_cycle;Signal;HPM_P1;HPM_P2
2022/06/03 00:02:28;;;;;;;8.90;4.50;;;11.90;99.90;;;;;;5111591;28;20048;-62
2022/06/03 00:05:11;;;;;;;7.88;3.92;;;11.90;99.90;;;;;;5093402;28;20115;-63
2022/06/03 00:08:10;;;;;;;7.10;4.47;;;11.80;99.90;;;;;;5111170;28;20409;-62
2022/06/03 00:11:04;;;;;;;6.82;4.60;;;11.80;99.90;;;;;;5092870;28;20056;-62
2022/06/03 00:13:42;;;;;;;7.95;4.90;;;11.80;99.90;;;;;;5111608;28;20060;-63
2022/06/03 00:16:49;;;;;;;7.57;4.57;;;11.70;99.90;;;;;;5093655;28;20036;-62
2022/06/03 00:19:26;;;;;;;8.02;5.22;;;11.70;99.90;;;;;;5111642;28;20127;-63
2022/06/03 00:22:16;;;;;;;7.30;4.63;;;11.70;99.90;;;;;;5110824;28;20084;-64
2022/06/03 00:25:02;;;;;;;8.93;4.82;;;11.60;99.90;;;;;;5111113;28;20070;-63
2022/06/03 00:27:49;;;;;;;7.28;5.20;;;11.60;99.90;;;;;;5111379;28;20519;-63
2022/06/03 00:30:33;;;;;;;10.23;4.93;;;11.60;99.90;;;;;;5093817;28;20047;-63
2022/06/03 00:33:29;;;;;;;8.57;5.07;;;11.60;99.90;;;;;;5110929;28;20489;-62
2022/06/03 00:36:12;;;;;;;8.57;5.20;;;11.50;99.90;;;;;;5093021;28;20132;-63
2022/06/03 00:38:57;;;;;;;8.48;5.32;;;11.50;99.90;;;;;;5111349;28;20118;-67
2022/06/03 00:41:40;;;;;;;7.93;4.82;;;11.50;99.90;;;;;;5076171;28;20100;-64
2022/06/03 00:44:28;;;;;;;7.30;4.90;;;11.50;99.90;;;;;;5111506;28;20047;-62
2022/06/03 00:47:13;;;;;;;6.63;5.20;;;11.40;99.90;;;;;;5092737;28;20047;-62
2022/06/03 00:50:04;;;;;;;9.95;5.45;;;11.40;99.90;;;;;;5093238;28;20083;-68
2022/06/03 00:52:59;;;;;;;7.18;5.20;;;11.40;99.90;;;;;;5115226;28;20369;-61
2022/06/03 00:55:53;;;;;;;8.13;5.43;;;11.30;99.90;;;;;;5115326;28;20040;-63
2022/06/03 00:58:45;;;;;;;8.75;5.45;;;11.30;99.90;;;;;;5097176;28;20071;-62
2022/06/03 01:01:47;;;;;;;10.68;5.70;;;11.30;99.90;;;;;;5097039;28;20051;-62
2022/06/03 01:04:30;;;;;;;10.43;5.47;;;11.20;99.90;;;;;;5115529;28;20051;-63
2022/06/03 01:07:08;;;;;;;7.75;6.13;;;11.20;99.90;;;;;;5114409;28;20592;-62
2022/06/03 01:09:58;;;;;;;9.30;6.43;;;11.20;99.90;;;;;;5096540;28;20560;-62
2022/06/03 01:12:37;;;;;;;9.02;5.60;;;11.10;99.90;;;;;;5096912;28;20134;-62
2022/06/03 01:15:17;;;;;;;10.68;5.78;;;11.00;99.90;;;;;;5079974;28;20094;-63
2022/06/03 01:18:01;;;;;;;10.02;5.72;;;11.00;99.90;;;;;;5114853;28;20047;-68
2022/06/03 01:20:45;;;;;;;8.93;6.28;;;11.00;99.90;;;;;;5115041;28;20047;-63
2022/06/03 01:23:37;;;;;;;8.07;5.55;;;11.00;99.90;;;;;;5115025;28;20043;-62
2022/06/03 01:26:30;;;;;;;8.77;6.03;;;11.00;99.90;;;;;;5114299;28;20113;-63
2022/06/03 01:29:14;;;;;;;7.95;6.13;;;11.00;99.90;;;;;;5114519;28;20048;-62
2022/06/03 01:32:17;;;;;;;8.10;6.05;;;10.90;99.90;;;;;;5114701;28;20052;-63
2022/06/03 01:35:10;;;;;;;9.60;6.20;;;10.90;99.90;;;;;;5114590;28;20122;-64
2022/06/03 01:37:56;;;;;;;11.95;6.00;;;10.90;99.90;;;;;;5114653;28;20042;-63
2022/06/03 01:40:37;;;;;;;9.20;6.07;;;10.90;99.90;;;;;;5096248;28;20066;-63
2022/06/03 01:43:30;;;;;;;11.18;6.53;;;10.80;99.90;;;;;;5096023;28;20052;-62
2022/06/03 01:46:11;;;;;;;11.02;6.68;;;10.80;99.90;;;;;;5114283;28;20447;-63
2022/06/03 01:49:01;;;;;;;8.35;6.05;;;10.90;99.90;;;;;;5095859;28;20048;-62
2022/06/03 01:51:54;;;;;;;9.30;6.50;;;10.80;99.90;;;;;;5114371;28;20048;-63
2022/06/03 01:55:12;;;;;;;9.00;6.10;;;10.80;99.90;;;;;;5114441;28;20446;-63
2022/06/03 01:57:50;;;;;;;10.20;6.57;;;10.80;99.90;;;;;;5074193;28;20048;-67
2022/06/03 02:00:37;;;;;;;10.77;6.07;;;10.80;99.90;;;;;;5114368;28;20357;-63
2022/06/03 02:03:30;;;;;;;11.18;6.57;;;10.70;99.90;;;;;;5094465;28;20062;-64
2022/06/03 02:06:09;;;;;;;8.30;6.40;;;10.70;99.90;;;;;;5113736;28;20096;-62
2022/06/03 02:08:47;;;;;;;7.95;6.43;;;10.60;99.90;;;;;;5113791;28;20039;-64
2022/06/03 02:11:40;;;;;;;8.80;6.55;;;10.60;99.90;;;;;;5113416;28;20512;-63
2022/06/03 02:14:33;;;;;;;8.75;6.22;;;10.60;99.90;;;;;;5113445;28;20098;-62
2022/06/03 02:17:11;;;;;;;9.57;6.60;;;10.50;99.90;;;;;;5095137;28;20330;-62
2022/06/03 02:20:04;;;;;;;11.82;6.32;;;10.50;99.90;;;;;;5113454;28;20039;-62
2022/06/03 02:22:52;;;;;;;8.18;6.70;;;10.70;99.90;;;;;;5113970;28;20096;-62
2022/06/03 02:25:27;;;;;;;10.65;6.75;;;10.50;99.90;;;;;;5095459;28;20040;-63
2022/06/03 02:27:58;;;;;;;9.45;6.50;;;10.40;99.90;;;;;;5078072;28;20051;-67
2022/06/03 02:30:46;;;;;;;8.95;7.07;;;10.50;99.90;;;;;;5113467;28;20047;-63
2022/06/03 02:33:30;;;;;;;12.55;7.10;;;10.40;99.90;;;;;;5113026;28;20063;-62
2022/06/03 02:36:11;;;;;;;10.73;6.90;;;10.40;99.90;;;;;;5095129;28;20077;-63
2022/06/03 02:39:13;;;;;;;8.48;6.90;;;10.40;99.90;;;;;;5113439;28;20046;-62
2022/06/03 02:42:09;;;;;;;11.10;7.03;;;10.40;99.90;;;;;;5095245;28;20086;-63
2022/06/03 02:44:38;;;;;;;12.50;7.60;;;10.30;99.90;;;;;;5113243;28;20104;-62
2022/06/03 02:47:05;;;;;;;10.75;7.43;;;10.30;99.90;;;;;;5112888;28;20044;-63
2022/06/03 02:50:02;;;;;;;9.68;7.07;;;10.40;99.90;;;;;;5113268;28;20108;-62
2022/06/03 02:53:00;;;;;;;12.68;7.50;;;10.30;99.90;;;;;;5113137;28;20043;-61
2022/06/03 02:55:47;;;;;;;12.93;7.03;;;10.30;99.90;;;;;;5113288;28;20505;-63
2022/06/03 02:58:39;;;;;;;11.82;7.45;;;10.30;99.90;;;;;;5112750;28;20487;-62
2022/06/03 03:01:38;;;;;;;11.27;7.30;;;10.30;99.90;;;;;;5077560;28;20083;-63
2022/06/03 03:04:18;;;;;;;12.77;8.45;;;10.20;99.90;;;;;;5112476;28;20044;-62
2022/06/03 03:06:56;;;;;;;11.43;7.93;;;10.20;99.90;;;;;;5112713;28;20044;-62
2022/06/03 03:09:43;;;;;;;9.10;7.60;;;10.20;99.90;;;;;;5094403;28;20051;-64
2022/06/03 03:12:45;;;;;;;8.10;7.20;;;10.20;99.90;;;;;;5094063;28;20082;-62
2022/06/03 03:15:29;;;;;;;10.00;7.88;;;10.20;99.90;;;;;;5112025;28;20096;-62
2022/06/03 03:18:21;;;;;;;8.90;7.50;;;10.20;99.90;;;;;;5112827;28;20058;-63
2022/06/03 03:21:21;;;;;;;10.05;7.78;;;10.20;99.90;;;;;;5094416;28;20533;-62
2022/06/03 03:24:05;;;;;;;9.68;7.82;;;10.10;99.90;;;;;;5112190;28;20061;-63
2022/06/03 03:27:14;;;;;;;10.57;8.30;;;10.10;99.90;;;;;;5094096;28;20051;-63
2022/06/03 03:30:10;;;;;;;11.38;7.70;;;10.10;99.90;;;;;;5112256;28;20635;-63
2022/06/03 03:33:02;;;;;;;11.90;8.00;;;10.10;99.90;;;;;;5077142;28;20059;-63
2022/06/03 03:35:58;;;;;;;9.75;7.45;;;10.00;99.90;;;;;;5112026;28;20052;-63
2022/06/03 03:38:47;;;;;;;9.75;7.43;;;10.00;99.90;;;;;;5111848;28;20043;-63
2022/06/03 03:41:54;;;;;;;11.65;7.32;;;10.00;99.90;;;;;;5111768;28;20095;-63
2022/06/03 03:44:53;;;;;;;10.00;7.40;;;10.00;99.90;;;;;;5111583;28;20084;-64
2022/06/03 03:47:47;;;;;;;11.25;8.35;;;10.10;99.90;;;;;;5111511;28;20039;-64
2022/06/03 03:50:22;;;;;;;9.82;6.80;;;10.10;99.90;;;;;;5093302;28;20040;-63
2022/06/03 03:53:05;;;;;;;9.98;6.80;;;10.10;99.90;;;;;;5111792;28;20123;-63
2022/06/03 03:55:43;;;;;;;10.13;6.95;;;10.20;99.90;;;;;;5111763;28;20500;-63
2022/06/03 03:58:12;;;;;;;8.85;6.88;;;10.10;99.90;;;;;;5111326;28;20039;-62
2022/06/03 04:00:58;;;;;;;9.70;7.22;;;10.20;99.90;;;;;;5076860;28;20144;-62
2022/06/03 04:03:44;;;;;;;9.70;6.80;;;10.20;99.90;;;;;;5111252;28;20040;-62
2022/06/03 04:06:40;;;;;;;8.13;6.57;;;10.30;99.90;;;;;;5093190;28;20047;-62
2022/06/03 04:09:19;;;;;;;10.50;6.47;;;10.30;99.90;;;;;;5111305;28;20583;-63
2022/06/03 04:12:22;;;;;;;8.68;6.78;;;10.30;99.90;;;;;;5111613;28;20061;-62
2022/06/03 04:15:24;;;;;;;8.55;6.78;;;10.30;99.90;;;;;;5111461;28;20111;-63
2022/06/03 04:18:05;;;;;;;9.85;6.25;;;10.40;99.90;;;;;;5111610;28;20489;-63
2022/06/03 04:20:58;;;;;;;9.23;6.93;;;10.40;99.90;;;;;;5111393;28;20157;-63
2022/06/03 04:24:01;;;;;;;8.75;6.82;;;10.50;99.90;;;;;;5111134;28;20047;-63
2022/06/03 04:27:02;;;;;;;8.70;6.55;;;10.60;99.90;;;;;;5117139;28;20054;-64
2022/06/03 04:29:48;;;;;;;10.45;7.45;;;10.70;99.90;;;;;;5117975;28;20050;-64
2022/06/03 04:32:44;;;;;;;10.23;6.90;;;10.80;99.90;;;;;;5117762;28;20104;-64
2022/06/03 04:35:33;;;;;;;9.00;6.70;;;10.90;99.90;;;;;;5117720;28;20043;-63
2022/06/03 04:38:49;;;;;;;8.05;6.93;;;11.00;99.90;;;;;;5118186;28;20074;-62
2022/06/03 04:41:49;;;;;;;8.32;6.43;;;11.20;99.90;;;;;;5074315;28;20108;-64
2022/06/03 04:44:36;;;;;;;10.43;6.82;;;11.40;99.90;;;;;;5099838;28;20101;-62
2022/06/03 04:48:09;;;;;;;9.15;6.43;;;11.80;99.90;;;;;;5118111;28;20048;-62
2022/06/03 04:51:12;;;;;;;9.80;5.70;;;12.70;99.90;;;;;;5118065;28;20061;-63
2022/06/03 04:54:05;;;;;;;9.35;5.55;;;14.00;99.90;;;;;;5117854;28;20048;-63
2022/06/03 04:56:49;;;;;;;8.35;5.25;;;14.90;99.90;;;;;;5117952;28;20689;-64
2022/06/03 04:59:52;;;;;;;6.50;4.72;;;15.80;99.90;;;;;;5117375;28;20094;-63
2022/06/03 05:02:30;;;;;;;7.05;4.70;;;16.60;99.90;;;;;;5117458;28;20047;-63
2022/06/03 05:05:14;;;;;;;8.15;4.95;;;17.10;99.90;;;;;;5118419;28;20043;-62
2022/06/03 05:07:48;;;;;;;6.22;4.43;;;17.60;99.90;;;;;;5117994;28;20400;-62
2022/06/03 05:10:16;;;;;;;;;;;18.00;99.90;;;;;;5117627;28;20062;-67
2022/06/03 05:13:25;;;;;;;7.35;4.70;;;18.30;99.90;;;;;;5118055;28;19923;-64
2022/06/03 05:16:09;;;;;;;5.75;4.25;;;18.70;99.90;;;;;;5099729;28;20052;-62
2022/06/03 05:18:54;;;;;;;7.40;4.78;;;19.10;99.90;;;;;;5117713;28;20044;-62
2022/06/03 05:21:19;;;;;;;;;;;19.40;99.90;;;;;;5117616;28;20393;-62
2022/06/03 05:24:14;;;;;;;9.30;4.75;;;19.70;99.90;;;;;;5117808;28;19942;-61
2022/06/03 05:26:53;;;;;;;;;;;20.00;99.90;;;;;;5099715;28;20055;-65
2022/06/03 05:29:48;;;;;;;5.13;3.47;;;20.50;99.90;;;;;;5117288;28;19927;-64
2022/06/03 05:32:44;;;;;;;5.65;3.70;;;21.30;99.90;;;;;;5117785;28;20047;-63
2022/06/03 05:35:47;;;;;;;5.20;3.50;;;21.60;99.90;;;;;;5116806;28;20464;-63
2022/06/03 05:38:25;;;;;;;5.47;3.33;;;21.90;99.70;;;;;;5114111;28;20047;-62
2022/06/03 05:40:56;;;;;;;5.50;3.40;;;22.20;99.90;;;;;;5114181;28;20428;-62
2022/06/03 05:43:50;;;;;;;5.78;3.75;;;22.50;99.90;;;;;;5113880;28;20069;-63
2022/06/03 05:46:32;;;;;;;6.88;3.78;;;22.50;98.10;;;;;;5114185;28;20114;-63
2022/06/03 05:49:10;;;;;;;6.78;3.58;;;22.10;99.10;;;;;;5095899;28;20051;-62
2022/06/03 05:51:51;;;;;;;5.13;3.30;;;22.30;97.80;;;;;;5114248;28;20066;-63
2022/06/03 05:54:46;;;;;;;5.78;3.22;;;22.60;98.50;;;;;;5096003;28;20550;-69
2022/06/03 05:57:21;;;;;;;5.45;3.47;;;22.50;96.60;;;;;;5114309;28;20380;-62
2022/06/03 06:00:09;;;;;;;4.82;2.80;;;22.70;98.60;;;;;;5095871;28;20090;-63
2022/06/03 06:02:46;;;;;;;7.72;3.20;;;22.70;96.50;;;;;;5113293;28;20052;-64
2022/06/03 06:05:24;;;;;;;7.13;3.22;;;22.60;96.60;;;;;;5113996;28;20112;-63
2022/06/03 06:08:10;;;;;;;5.53;2.92;;;22.50;96.50;;;;;;5113829;28;20066;-64
2022/06/03 06:11:24;;;;;;;5.35;3.10;;;22.80;96.90;;;;;;5112925;28;20109;-63
2022/06/03 06:14:13;;;;;;;7.40;3.05;;;22.90;95.00;;;;;;5073376;28;20047;-64
2022/06/03 06:16:45;;;;;;;6.53;3.00;;;23.10;95.70;;;;;;5113349;28;20136;-66
2022/06/03 06:19:35;;;;;;;4.22;2.85;;;23.30;95.20;;;;;;5113685;28;20091;-64
2022/06/03 06:22:10;;;;;;;3.80;2.58;;;23.50;94.40;;;;;;5113462;28;20051;-64
2022/06/03 06:24:55;;;;;;;5.15;2.53;;;23.50;93.90;;;;;;5113034;28;20116;-64
2022/06/03 06:27:45;;;;;;;4.68;2.60;;;23.40;92.80;;;;;;5113545;28;20082;-65
2022/06/03 06:30:24;;;;;;;3.72;2.22;;;23.20;93.60;;;;;;5078392;28;20047;-64
2022/06/03 06:33:14;;;;;;;3.28;2.45;;;23.40;93.80;;;;;;5113239;28;20047;-63
2022/06/03 06:36:01;;;;;;;4.70;2.40;;;23.80;93.50;;;;;;5113229;28;20048;-64
2022/06/03 06:38:30;;;;;;;3.67;2.00;;;24.00;93.30;;;;;;5094990;28;20048;-64
2022/06/03 06:41:29;;;;;;;4.43;2.40;;;24.40;92.90;;;;;;5094126;28;20047;-66
2022/06/03 06:44:15;;;;;;;6.32;2.40;;;24.50;92.20;;;;;;5113005;28;20416;-65
2022/06/03 06:47:02;;;;;;;3.33;1.83;;;24.90;92.30;;;;;;5094126;28;20043;-67
2022/06/03 06:49:34;;;;;;;3.97;1.60;;;25.50;90.70;;;;;;5111966;28;20043;-66
2022/06/03 06:52:31;;;;;;;5.38;1.80;;;25.60;90.20;;;;;;5112286;28;20503;-64
2022/06/03 06:55:06;;;;;;;7.97;2.55;;;25.40;87.20;;;;;;5113155;28;20052;-63
2022/06/03 06:57:40;;;;;;;4.15;2.20;;;25.70;90.00;;;;;;5112351;28;20180;-62
2022/06/03 07:00:16;;;;;;;3.70;1.98;;;25.80;87.20;;;;;;5112814;28;20055;-65
2022/06/03 07:03:14;;;;;;;3.92;2.00;;;26.00;88.00;;;;;;5112254;28;20074;-63
2022/06/03 07:05:50;;;;;;;3.45;2.22;;;26.20;87.10;;;;;;5072620;28;20052;-63
2022/06/03 07:08:21;;;;;;;4.45;1.88;;;26.70;88.70;;;;;;5112526;28;20048;-65
2022/06/03 07:10:53;;;;;;;4.03;1.80;;;27.00;87.70;;;;;;5111532;28;20493;-62
2022/06/03 07:13:30;;;;;;;4.00;1.75;;;27.00;85.90;;;;;;5094247;28;20500;-66
2022/06/03 07:16:08;;;;;;;3.08;1.60;;;26.90;83.70;;;;;;5112594;28;20043;-63
2022/06/03 07:21:57;;;;;;;4.65;2.30;;;27.20;82.00;;;;;;5111880;28;20052;-62
2022/06/03 07:24:43;;;;;;;3.15;1.50;;;27.20;83.80;;;;;;5112286;28;20043;-62
2022/06/03 07:27:20;;;;;;;3.17;1.70;;;27.10;83.80;;;;;;5094047;28;20048;-62
2022/06/03 07:30:03;;;;;;;3.28;1.67;;;26.80;81.70;;;;;;5111821;28;20089;-62
2022/06/03 07:32:38;;;;;;;4.60;1.92;;;27.00;78.70;;;;;;5112381;28;20461;-61
2022/06/03 07:35:16;;;;;;;2.95;1.60;;;27.10;80.50;;;;;;5112404;28;20047;-61
2022/06/03 07:38:00;;;;;;;4.43;1.70;;;26.90;80.80;;;;;;5111824;28;20059;-61
2022/06/03 07:40:40;;;;;;;4.13;1.52;;;26.90;79.90;;;;;;5094016;28;20100;-63
2022/06/03 07:43:18;;;;;;;2.78;1.38;;;27.10;78.20;;;;;;5094096;28;20122;-63
2022/06/03 07:45:53;;;;;;;1.83;1.30;;;27.40;79.30;;;;;;5111844;28;20079;-63
2022/06/03 07:48:22;;;;;;;2.97;1.30;;;27.10;75.10;;;;;;5093494;28;20112;-62
2022/06/03 07:50:48;;;;;;;2.33;1.27;;;27.00;77.20;;;;;;5111557;28;20403;-63
2022/06/03 07:53:18;;;;;;;2.20;1.30;;;26.70;76.60;;;;;;5112041;28;20131;-63
2022/06/03 07:55:53;;;;;;;3.05;1.40;;;26.70;76.00;;;;;;5111706;28;20048;-61
2022/06/03 07:58:22;;;;;;;1.67;1.23;;;27.30;77.00;;;;;;5112296;28;20122;-63
2022/06/03 08:00:48;;;;;;;3.13;1.38;;;27.70;75.80;;;;;;5110602;28;20143;-62
2022/06/03 08:03:23;;;;;;;5.38;1.33;;;27.80;75.10;;;;;;5111915;28;20047;-62
2022/06/03 08:05:55;;;;;;;4.53;1.70;;;27.90;73.30;;;;;;5111518;28;20100;-62
2022/06/03 08:11:21;;;;;;;2.55;1.50;;;27.80;73.00;;;;;;5111740;28;20105;-64
2022/06/03 08:13:49;;;;;;;3.40;1.40;;;28.00;73.60;;;;;;5111032;28;20083;-65
2022/06/03 08:16:21;;;;;;;2.72;1.30;;;27.80;73.30;;;;;;5093374;28;20400;-64
2022/06/03 08:18:47;;;;;;;1.88;1.27;;;27.70;73.10;;;;;;5093336;28;20048;-64
2022/06/03 08:21:43;;;;;;;2.67;1.30;;;27.80;72.60;;;;;;5111627;28;20043;-64
2022/06/03 08:24:16;;;;;;;1.80;1.15;;;28.00;71.60;;;;;;5111722;28;20047;-63
2022/06/03 08:26:46;;;;;;;1.85;1.13;;;28.10;71.40;;;;;;5111071;28;20052;-61
2022/06/03 08:29:30;;;;;;;2.63;1.05;;;28.20;72.20;;;;;;5111545;28;20052;-62
2022/06/03 08:31:58;;;;;;;3.42;1.30;;;28.40;70.80;;;;;;5110928;28;20077;-62
2022/06/03 08:34:28;;;;;;;2.28;1.20;;;28.70;72.10;;;;;;5092832;28;20043;-63
2022/06/03 08:36:55;;;;;;;3.15;1.30;;;28.50;70.10;;;;;;5076112;28;20039;-62
2022/06/03 08:39:25;;;;;;;2.35;1.30;;;28.50;72.30;;;;;;5111578;28;20051;-62
2022/06/03 08:42:00;;;;;;;3.92;1.30;;;29.00;70.70;;;;;;5093176;28;20122;-64
2022/06/03 08:44:36;;;;;;;1.98;1.00;;;28.60;67.10;;;;;;5111502;28;20039;-63
2022/06/03 08:47:19;;;;;;;2.13;1.10;;;28.50;68.60;;;;;;5110960;28;20054;-63
2022/06/03 08:49:49;;;;;;;2.88;1.17;;;28.40;68.90;;;;;;5111163;28;20412;-61
2022/06/03 08:52:21;;;;;;;2.67;1.27;;;28.70;68.20;;;;;;5111696;28;20087;-63
2022/06/03 08:54:53;;;;;;;4.97;1.40;;;28.40;67.50;;;;;;5111014;28;20409;-64
2022/06/03 08:57:28;;;;;;;2.05;1.10;;;28.20;67.50;;;;;;5111487;28;20451;-65
2022/06/03 09:00:22;;;;;;;1.50;1.08;;;28.20;67.30;;;;;;5111214;28;20408;-63
2022/06/03 09:02:58;;;;;;;2.17;1.20;;;28.60;66.00;;;;;;5066819;28;20055;-63
2022/06/03 09:05:34;;;;;;;1.95;1.10;;;28.30;66.60;;;;;;5111889;28;20044;-64
2022/06/03 09:08:11;;;;;;;1.60;1.02;;;28.40;67.30;;;;;;5110900;28;20043;-64
2022/06/03 09:10:57;;;;;;;2.60;1.40;;;28.30;67.30;;;;;;5111584;28;20081;-62
2022/06/03 09:13:55;;;;;;;1.35;1.00;;;28.50;67.20;;;;;;5115267;28;20051;-63
2022/06/03 09:16:25;;;;;;;3.75;1.30;;;28.30;65.90;;;;;;5107703;28;20091;-63
2022/06/03 09:18:59;;;;;;;2.15;1.25;;;28.10;67.00;;;;;;5115298;28;20057;-63
2022/06/03 09:21:31;;;;;;;3.55;1.30;;;27.80;66.90;;;;;;5115313;28;20125;-66
2022/06/03 09:24:14;;;;;;;4.10;1.20;;;28.00;67.50;;;;;;5096778;28;20051;-64
2022/06/03 09:26:46;;;;;;;2.38;1.40;;;28.20;67.60;;;;;;5115137;28;20091;-64
2022/06/03 09:29:13;;;;;;;2.72;1.60;;;28.10;66.90;;;;;;5114747;28;20048;-63
2022/06/03 09:31:44;;;;;;;3.35;1.50;;;28.20;67.90;;;;;;5115111;28;20126;-65
2022/06/03 09:34:12;;;;;;;2.95;1.42;;;28.40;67.50;;;;;;5096325;28;20101;-65
2022/06/03 09:36:38;;;;;;;2.30;1.40;;;28.20;67.70;;;;;;5079836;28;20093;-62
2022/06/03 09:39:08;;;;;;;4.65;1.60;;;27.90;67.30;;;;;;5096133;28;20555;-63
2022/06/03 09:41:38;;;;;;;3.40;1.50;;;27.50;67.40;;;;;;5114742;28;20397;-67
2022/06/03 09:44:06;;;;;;;3.47;1.55;;;27.30;68.00;;;;;;5114212;28;20054;-63
2022/06/03 09:46:34;;;;;;;2.75;1.48;;;27.30;67.70;;;;;;5114731;28;20450;-63
2022/06/03 09:49:01;;;;;;;3.70;1.13;;;26.90;68.40;;;;;;5095762;28;20043;-63
2022/06/03 09:52:30;;;;;;;2.47;1.50;;;26.90;68.40;;;;;;5114298;28;20055;-65
2022/06/03 09:54:32;;;;;;;2.60;1.52;;;26.80;68.60;;;;;;5100745;28;20055;-62
2022/06/03 09:57:09;;;;;;;2.85;1.50;;;26.60;68.00;;;;;;5078998;28;20131;-63
2022/06/03 09:59:38;;;;;;;2.38;1.50;;;26.30;67.90;;;;;;5096046;28;20569;-62
2022/06/03 10:02:06;;;;;;;5.00;1.80;;;26.00;68.10;;;;;;5113921;28;20071;-63
2022/06/03 10:04:32;;;;;;;2.67;1.55;;;25.60;68.50;;;;;;5114230;28;20040;-64
2022/06/03 10:07:00;;;;;;;3.58;1.63;;;25.40;68.70;;;;;;5114014;28;20047;-64
2022/06/03 10:12:49;;;;;;;3.20;1.70;;;24.80;70.20;;;;;;5113852;28;20083;-63
2022/06/03 10:18:11;;;;;;;3.92;1.90;;;24.40;70.40;;;;;;5113710;28;20047;-64
2022/06/03 10:20:37;;;;;;;2.55;1.70;;;24.20;71.00;;;;;;5114031;28;20047;-63
2022/06/03 10:23:06;;;;;;;3.22;1.92;;;24.20;71.60;;;;;;5112635;28;20087;-63
2022/06/03 10:25:32;;;;;;;3.13;1.70;;;24.10;71.30;;;;;;5114045;28;20032;-65
2022/06/03 10:28:06;;;;;;;4.20;2.05;;;24.10;72.60;;;;;;5113220;28;20036;-65
2022/06/03 10:30:36;;;;;;;3.00;1.60;;;24.00;71.60;;;;;;5095844;28;20051;-64
2022/06/03 10:33:05;;;;;;;2.13;1.48;;;24.10;71.50;;;;;;5113258;28;20050;-64
2022/06/03 10:35:38;;;;;;;4.35;1.80;;;24.10;71.70;;;;;;5095835;28;20058;-63
2022/06/03 10:38:04;;;;;;;3.40;1.90;;;24.00;72.70;;;;;;5113469;28;20069;-63
2022/06/03 10:40:32;;;;;;;3.17;1.88;;;24.10;72.30;;;;;;5113025;28;20048;-65
2022/06/03 10:43:01;;;;;;;3.90;1.77;;;24.10;72.40;;;;;;5113324;28;20040;-63
2022/06/03 10:45:29;;;;;;;3.33;1.90;;;24.10;72.30;;;;;;5095600;28;20485;-66
2022/06/03 10:47:55;;;;;;;2.63;1.80;;;24.10;72.30;;;;;;5113251;28;20062;-66
2022/06/03 10:50:25;;;;;;;3.10;1.75;;;23.90;73.70;;;;;;5113063;28;20134;-63
2022/06/03 11:01:41;;;;;;;4.78;1.92;;;23.60;74.60;;;;;;5113241;28;20139;-64
2022/06/03 11:04:22;;;;;;;2.88;1.80;;;23.50;74.60;;;;;;5112831;28;20050;-64
2022/06/03 11:06:47;;;;;;;3.90;1.92;;;23.70;76.50;;;;;;5113238;28;20043;-63
2022/06/03 11:09:15;;;;;;;2.50;1.90;;;23.80;74.20;;;;;;5094593;28;20059;-63
2022/06/03 11:11:43;;;;;;;4.28;1.90;;;23.80;73.90;;;;;;5113184;28;20040;-63
2022/06/03 11:14:23;;;;;;;2.78;1.90;;;23.60;73.60;;;;;;5094583;28;20043;-62
2022/06/03 11:17:07;;;;;;;3.40;1.95;;;23.30;73.70;;;;;;5095147;28;20537;-62
2022/06/03 11:19:45;;;;;;;3.78;2.28;;;23.30;74.80;;;;;;5112995;28;20039;-63
2022/06/03 11:22:23;;;;;;;4.80;1.98;;;23.10;75.10;;;;;;5112778;28;20054;-63
2022/06/03 11:24:54;;;;;;;4.88;1.92;;;23.10;75.80;;;;;;5112926;28;20048;-62
2022/06/03 11:27:28;;;;;;;3.97;2.10;;;23.10;74.80;;;;;;5094569;28;20481;-63
2022/06/03 11:29:59;;;;;;;4.88;2.35;;;23.20;75.70;;;;;;5112821;28;20144;-63
2022/06/03 11:32:27;;;;;;;3.47;1.83;;;23.30;74.50;;;;;;5112443;28;20054;-62
2022/06/03 11:35:09;;;;;;;3.35;1.83;;;23.30;73.80;;;;;;5112681;28;20108;-63
2022/06/03 11:37:41;;;;;;;3.25;1.80;;;23.00;74.90;;;;;;5112535;28;20469;-63
2022/06/03 11:40:22;;;;;;;3.08;1.90;;;23.00;75.10;;;;;;5094094;28;20040;-63
2022/06/03 11:43:00;;;;;;;3.95;2.00;;;23.10;75.50;;;;;;5094418;28;20473;-64
2022/06/03 11:45:51;;;;;;;3.47;2.10;;;23.20;75.00;;;;;;5077393;28;20051;-62
2022/06/03 11:48:27;;;;;;;4.45;2.00;;;23.10;74.90;;;;;;5111971;28;20051;-63
2022/06/03 11:50:53;;;;;;;3.42;2.08;;;23.00;76.10;;;;;;5112399;28;20047;-62
2022/06/03 11:53:24;;;;;;;4.90;1.92;;;22.90;76.60;;;;;;5111692;28;20043;-62
2022/06/03 11:55:53;;;;;;;3.97;2.08;;;22.90;76.20;;;;;;5094008;28;20054;-62
2022/06/03 11:58:21;;;;;;;4.38;2.00;;;22.90;76.10;;;;;;5076830;28;20044;-64
2022/06/03 12:00:57;;;;;;;3.65;2.20;;;22.90;76.30;;;;;;5112308;28;20075;-65
2022/06/03 12:03:45;;;;;;;3.35;2.08;;;22.90;75.60;;;;;;5111857;28;20059;-64
2022/06/03 12:06:24;;;;;;;4.05;2.05;;;22.90;76.10;;;;;;5093708;28;20055;-63
2022/06/03 12:09:36;;;;;;;5.45;1.95;;;22.90;76.10;;;;;;5112206;28;20035;-62
2022/06/03 12:15:28;;;;;;;3.83;1.95;;;22.80;76.70;;;;;;5111728;28;20087;-63
2022/06/03 12:17:54;;;;;;;4.38;2.05;;;22.80;77.40;;;;;;5111623;28;20084;-63
2022/06/03 12:20:31;;;;;;;5.85;2.30;;;22.80;77.30;;;;;;5111529;28;20126;-62
2022/06/03 12:23:12;;;;;;;3.10;1.67;;;22.70;76.70;;;;;;5093593;28;20476;-63
2022/06/03 12:25:56;;;;;;;4.28;1.88;;;22.80;77.30;;;;;;5111843;28;20052;-65
2022/06/03 12:28:42;;;;;;;3.47;1.80;;;22.70;77.90;;;;;;5111446;28;20039;-64
2022/06/03 12:31:19;;;;;;;6.38;2.10;;;22.80;79.00;;;;;;5111609;28;20281;-64
2022/06/03 12:33:57;;;;;;;4.45;1.83;;;22.80;78.60;;;;;;5111266;28;20051;-63
2022/06/03 12:36:46;;;;;;;6.97;2.65;;;22.90;78.90;;;;;;5110332;28;20463;-62
2022/06/03 12:39:18;;;;;;;3.20;1.50;;;22.80;78.00;;;;;;5111543;28;20047;-62
2022/06/03 12:41:46;;;;;;;3.63;1.77;;;22.70;78.40;;;;;;5111390;28;20047;-62
2022/06/03 12:44:50;;;;;;;4.53;1.70;;;22.70;78.30;;;;;;5111639;28;20051;-61
2022/06/03 12:47:18;;;;;;;3.20;1.80;;;22.70;78.50;;;;;;5079551;28;20384;-63
2022/06/03 12:49:44;;;;;;;2.53;1.45;;;22.60;78.60;;;;;;5115868;28;20431;-62
2022/06/03 12:52:35;;;;;;;3.60;1.50;;;22.70;79.40;;;;;;5115820;28;20039;-62
2022/06/03 12:55:10;;;;;;;3.75;1.60;;;22.80;79.50;;;;;;5115918;28;20051;-62
2022/06/03 12:58:01;;;;;;;4.80;1.52;;;22.70;79.20;;;;;;5097259;28;20039;-61
2022/06/03 13:00:48;;;;;;;2.97;1.30;;;22.60;79.80;;;;;;5115263;28;20047;-62
2022/06/03 13:03:17;;;;;;;2.30;1.23;;;22.60;80.40;;;;;;5097414;28;20530;-62
2022/06/03 13:05:48;;;;;;;3.78;1.40;;;22.50;80.20;;;;;;5115442;28;20096;-62
2022/06/03 13:08:28;;;;;;;3.42;1.40;;;22.30;80.30;;;;;;5097406;28;20395;-64
2022/06/03 13:11:31;;;;;;;4.75;1.35;;;22.20;81.80;;;;;;5096627;28;20056;-62
2022/06/03 13:13:56;;;;;;;3.60;1.42;;;22.10;81.70;;;;;;5103515;28;20416;-62
2022/06/03 13:16:36;;;;;;;2.72;1.48;;;22.20;80.90;;;;;;5114759;28;20039;-62
2022/06/03 13:19:13;;;;;;;1.65;1.20;;;22.00;81.70;;;;;;5115369;28;20397;-62
2022/06/03 13:22:02;;;;;;;3.67;1.50;;;21.80;81.50;;;;;;5114932;28;20123;-61
2022/06/03 13:24:39;;;;;;;2.05;1.20;;;21.90;82.90;;;;;;5096684;28;20524;-63
2022/06/03 13:27:07;;;;;;;4.03;1.40;;;21.90;81.70;;;;;;5096574;28;20044;-63
2022/06/03 13:30:13;;;;;;;2.55;1.40;;;21.70;81.90;;;;;;5114549;28;20086;-63
2022/06/03 13:32:58;;;;;;;2.13;1.20;;;21.60;81.90;;;;;;5085240;28;20478;-62
2022/06/03 13:35:28;;;;;;;2.35;1.40;;;21.50;80.80;;;;;;5079657;28;20123;-62
2022/06/03 13:37:58;;;;;;;4.07;1.38;;;21.50;81.20;;;;;;5114949;28;20396;-62
2022/06/03 13:40:26;;;;;;;3.72;1.38;;;21.50;81.50;;;;;;5114437;28;20385;-62
2022/06/03 13:42:58;;;;;;;3.03;1.30;;;21.60;80.40;;;;;;5096767;28;20262;-62
2022/06/03 13:45:44;;;;;;;4.18;1.80;;;21.60;81.20;;;;;;5096141;28;20401;-62
2022/06/03 13:48:20;;;;;;;2.47;1.35;;;21.50;81.40;;;;;;5096820;28;20427;-62
2022/06/03 13:50:46;;;;;;;2.95;1.30;;;21.40;80.80;;;;;;5096142;28;20051;-62
2022/06/03 13:53:21;;;;;;;1.80;1.20;;;21.30;81.40;;;;;;5096507;28;20534;-62
2022/06/03 13:55:54;;;;;;;6.13;1.50;;;21.50;82.30;;;;;;5096378;28;20056;-63
2022/06/03 13:58:28;;;;;;;4.57;1.40;;;21.60;82.40;;;;;;5095426;28;20052;-63
2022/06/03 14:01:05;;;;;;;6.53;1.73;;;21.50;81.30;;;;;;5114529;28;20058;-63
2022/06/03 14:04:09;;;;;;;5.30;1.38;;;21.50;82.20;;;;;;5114342;28;20048;-64
2022/06/03 14:06:39;;;;;;;1.38;0.90;;;21.50;81.80;;;;;;5095556;28;20078;-62
2022/06/03 14:09:18;;;;;;;3.22;1.10;;;21.60;80.80;;;;;;5113885;28;20047;-61
2022/06/03 14:11:55;;;;;;;5.22;1.05;;;21.50;79.10;;;;;;5113711;28;20537;-63
2022/06/03 14:15:01;;;;;;;2.88;1.17;;;21.50;78.50;;;;;;5114283;28;20047;-63
2022/06/03 14:17:32;;;;;;;1.85;1.17;;;21.30;78.40;;;;;;5096077;28;20341;-63
2022/06/03 14:20:11;;;;;;;2.22;1.27;;;21.10;78.30;;;;;;5113956;28;20552;-62
2022/06/03 14:22:47;;;;;;;3.90;1.40;;;21.00;78.00;;;;;;5113633;28;20052;-64
2022/06/03 14:25:30;;;;;;;1.70;1.00;;;21.00;78.10;;;;;;5114042;28;20051;-63